createdAt,value
2023-01-08T00:01:30.649Z,978.8
2023-01-08T00:03:32.319Z,978.8
2023-01-08T00:05:33.383Z,978.8
2023-01-08T00:07:34.501Z,978.7
2023-01-08T00:09:36.405Z,978.8
2023-01-08T00:11:38.197Z,978.8
2023-01-08T00:13:40.217Z,978.8
2023-01-08T00:15:41.902Z,978.8
2023-01-08T00:19:44.540Z,978.8
2023-01-08T00:21:46.150Z,978.7
2023-01-08T00:23:47.154Z,978.6
2023-01-08T00:25:48.754Z,978.6
2023-01-08T00:27:49.731Z,978.7
2023-01-08T00:29:51.195Z,978.7
2023-01-08T00:31:52.347Z,978.7
2023-01-08T00:33:54.202Z,978.7
2023-01-08T00:35:55.864Z,978.5
2023-01-08T00:37:57.068Z,978.5
2023-01-08T00:39:58.057Z,978.6
2023-01-08T00:41:59.611Z,978.6
2023-01-08T00:46:02.766Z,978.4
2023-01-08T00:48:03.810Z,978.4
2023-01-08T00:50:05.360Z,978.3
2023-01-08T00:52:07.742Z,978.3
2023-01-08T00:54:07.884Z,978.3
2023-01-08T00:56:09.349Z,978.3
2023-01-08T00:58:10.399Z,978.2
2023-01-08T01:00:11.483Z,978.1
2023-01-08T01:02:13.353Z,978.2
2023-01-08T01:04:15.045Z,978.3
2023-01-08T01:06:16.157Z,978.2
2023-01-08T01:08:17.467Z,978.3
2023-01-08T01:10:19.250Z,978.3
2023-01-08T01:12:20.351Z,978.1
2023-01-08T01:14:22.048Z,978.1
2023-01-08T01:16:23.379Z,978.1
2023-01-08T01:18:25.118Z,978
2023-01-08T01:20:26.292Z,978.1
2023-01-08T01:22:27.383Z,978.1
2023-01-08T01:24:28.865Z,977.9
2023-01-08T01:26:29.849Z,977.9
2023-01-08T01:28:31.301Z,978
2023-01-08T01:30:33.287Z,977.9
2023-01-08T01:32:34.265Z,978
2023-01-08T01:34:35.357Z,978
2023-01-08T01:36:36.944Z,978
2023-01-08T01:38:38.480Z,978
2023-01-08T01:40:40.152Z,978
2023-01-08T01:44:43.532Z,978.1
2023-01-08T01:46:45.223Z,978
2023-01-08T01:48:46.719Z,977.9
2023-01-08T01:50:48.476Z,978
2023-01-08T01:52:50.002Z,977.9
2023-01-08T01:54:51.792Z,977.9
2023-01-08T01:56:53.317Z,977.9
2023-01-08T01:58:55.099Z,978
2023-01-08T02:00:56.880Z,977.9
2023-01-08T02:02:58.687Z,977.8
2023-01-08T02:05:00.064Z,977.9
2023-01-08T02:07:01.792Z,977.9
2023-01-08T02:09:03.458Z,977.9
2023-01-08T02:11:04.611Z,977.9
2023-01-08T02:13:06.026Z,977.9
2023-01-08T02:15:08.008Z,977.9
2023-01-08T02:17:09.686Z,977.8
2023-01-08T02:19:10.700Z,977.8
2023-01-08T02:21:12.255Z,977.7
2023-01-08T02:21:56.115Z,977.8
2023-01-08T02:23:57.685Z,977.8
2023-01-08T02:25:59.516Z,978
2023-01-08T02:28:01.220Z,978
2023-01-08T02:30:03.005Z,977.9
2023-01-08T02:32:04.566Z,977.8
2023-01-08T02:34:05.796Z,977.7
2023-01-08T02:38:08.790Z,977.7
2023-01-08T02:40:09.847Z,977.6
2023-01-08T02:42:11.200Z,977.5
2023-01-08T02:44:12.695Z,977.4
2023-01-08T02:46:14.604Z,977.5
2023-01-08T02:48:16.529Z,977.3
2023-01-08T02:50:18.059Z,977.4
2023-01-08T02:52:19.646Z,977.4
2023-01-08T02:54:20.921Z,977.3
2023-01-08T02:56:22.186Z,977.2
2023-01-08T02:58:23.563Z,977.2
2023-01-08T03:00:24.855Z,977.3
2023-01-08T03:02:26.595Z,977.2
2023-01-08T03:04:27.569Z,977.2
2023-01-08T03:06:29.016Z,977.2
2023-01-08T03:08:30.671Z,977.2
2023-01-08T03:10:31.711Z,977.2
2023-01-08T03:12:33.646Z,977.2
2023-01-08T03:14:35.588Z,977.2
2023-01-08T03:16:36.883Z,977.1
2023-01-08T03:20:40.235Z,977
2023-01-08T03:22:41.261Z,977
2023-01-08T03:24:42.392Z,977
2023-01-08T03:26:44.155Z,977
2023-01-08T03:28:45.986Z,976.9
2023-01-08T03:30:47.523Z,977
2023-01-08T03:32:49.215Z,977
2023-01-08T03:34:51.106Z,977.1
2023-01-08T03:36:52.928Z,977
2023-01-08T03:38:54.224Z,977
2023-01-08T03:40:55.803Z,977
2023-01-08T03:42:57.295Z,976.9
2023-01-08T03:44:58.896Z,977
2023-01-08T03:47:00.190Z,977
2023-01-08T03:49:01.893Z,977
2023-01-08T03:51:03.858Z,977
2023-01-08T03:53:05.764Z,977
2023-01-08T03:55:07.547Z,976.9
2023-01-08T03:57:09.257Z,977
2023-01-08T03:59:10.885Z,976.9
2023-01-08T04:03:14.559Z,976.9
2023-01-08T04:05:16.040Z,976.8
2023-01-08T04:07:17.603Z,976.8
2023-01-08T04:09:18.949Z,976.8
2023-01-08T04:11:20.037Z,976.7
2023-01-08T04:13:21.526Z,976.7
2023-01-08T04:15:22.789Z,976.7
2023-01-08T04:17:24.700Z,976.7
2023-01-08T04:19:26.225Z,976.6
2023-01-08T04:21:27.110Z,976.5
2023-01-08T04:23:36.584Z,976.4
2023-01-08T04:25:30.333Z,976.3
2023-01-08T04:27:31.831Z,976.4
2023-01-08T04:29:32.975Z,976.5
2023-01-08T04:31:34.670Z,976.5
2023-01-08T04:33:35.988Z,976.5
2023-01-08T04:35:37.835Z,976.5
2023-01-08T04:37:39.411Z,976.6
2023-01-08T04:39:41.018Z,976.5
2023-01-08T04:41:42.034Z,976.6
2023-01-08T04:43:43.992Z,976.6
2023-01-08T04:45:45.801Z,976.5
2023-01-08T04:47:47.495Z,976.4
2023-01-08T04:49:48.711Z,976.5
2023-01-08T04:51:50.195Z,976.3
2023-01-08T04:53:52.119Z,976.3
2023-01-08T04:55:53.781Z,976.3
2023-01-08T04:57:54.847Z,976.5
2023-01-08T04:59:56.636Z,976.4
2023-01-08T05:01:58.644Z,976.4
2023-01-08T05:03:59.980Z,976.5
2023-01-08T05:06:01.168Z,976.4
2023-01-08T05:08:02.972Z,976.3
2023-01-08T05:12:05.956Z,976.2
2023-01-08T05:14:07.856Z,976.2
2023-01-08T05:16:09.794Z,976.3
2023-01-08T05:18:10.797Z,976.3
2023-01-08T05:20:12.107Z,976.3
2023-01-08T05:22:13.647Z,976.2
2023-01-08T05:24:14.869Z,976.1
2023-01-08T05:26:16.252Z,976.2
2023-01-08T05:28:17.716Z,976.2
2023-01-08T05:30:18.915Z,976.1
2023-01-08T05:32:20.200Z,976.2
2023-01-08T05:34:21.526Z,976.3
2023-01-08T05:36:23.334Z,976.2
2023-01-08T05:38:25.320Z,976.2
2023-01-08T05:40:27.225Z,976.1
2023-01-08T05:42:28.776Z,976
2023-01-08T05:44:30.132Z,976.1
2023-01-08T05:46:31.321Z,976.1
2023-01-08T05:48:32.984Z,976.2
2023-01-08T05:50:34.018Z,976.1
2023-01-08T05:54:37.659Z,976.2
2023-01-08T05:56:39.296Z,976.1
2023-01-08T05:58:41.170Z,976.1
2023-01-08T06:00:42.530Z,976.2
2023-01-08T06:04:45.763Z,976.3
2023-01-08T06:06:46.874Z,976.3
2023-01-08T06:08:48.453Z,976.2
2023-01-08T06:10:49.978Z,976.2
2023-01-08T06:12:51.255Z,976.2
2023-01-08T06:14:52.663Z,976.2
2023-01-08T06:16:53.886Z,976.1
2023-01-08T06:18:55.813Z,976.2
2023-01-08T06:20:57.290Z,976.2
2023-01-08T06:22:59.099Z,976.1
2023-01-08T06:25:00.566Z,976.2
2023-01-08T06:27:02.245Z,976.2
2023-01-08T06:29:03.664Z,976.3
2023-01-08T06:31:05.147Z,976.3
2023-01-08T06:33:06.064Z,976.3
2023-01-08T06:37:09.350Z,976.3
2023-01-08T06:39:10.775Z,976.4
2023-01-08T06:41:12.401Z,976.4
2023-01-08T06:43:13.443Z,976.3
2023-01-08T06:47:16.344Z,976.4
2023-01-08T06:49:18.084Z,976.4
2023-01-08T06:51:19.444Z,976.4
2023-01-08T06:53:20.407Z,976.4
2023-01-08T06:55:22.236Z,976.5
2023-01-08T06:57:23.529Z,976.3
2023-01-08T06:59:25.365Z,976.3
2023-01-08T07:01:27.020Z,976.4
2023-01-08T07:03:28.593Z,976.4
2023-01-08T07:05:29.930Z,976.4
2023-01-08T07:07:31.612Z,976.4
2023-01-08T07:09:32.605Z,976.5
2023-01-08T07:11:33.992Z,976.5
2023-01-08T07:13:35.294Z,976.5
2023-01-08T07:15:36.310Z,976.5
2023-01-08T07:17:37.382Z,976.5
2023-01-08T07:19:38.972Z,976.6
2023-01-08T07:21:40.469Z,976.6
2023-01-08T07:23:42.320Z,976.5
2023-01-08T07:25:43.675Z,976.5
2023-01-08T07:27:45.391Z,976.6
2023-01-08T07:29:47.184Z,976.7
2023-01-08T07:31:48.167Z,976.6
2023-01-08T07:33:49.346Z,976.6
2023-01-08T07:35:50.323Z,976.5
2023-01-08T07:37:51.957Z,976.5
2023-01-08T07:39:52.973Z,976.5
2023-01-08T07:41:54.742Z,976.6
2023-01-08T07:43:56.561Z,976.5
2023-01-08T07:45:57.910Z,976.6
2023-01-08T07:47:59.660Z,976.5
2023-01-08T07:50:01.091Z,976.5
2023-01-08T07:52:03.136Z,976.5
2023-01-08T07:54:04.729Z,976.5
2023-01-08T07:56:05.765Z,976.5
2023-01-08T07:58:06.911Z,976.5
2023-01-08T08:00:08.158Z,976.5
2023-01-08T08:02:10.134Z,976.5
2023-01-08T08:04:11.682Z,976.4
2023-01-08T08:06:12.641Z,976.5
2023-01-08T08:08:14.057Z,976.4
2023-01-08T08:10:15.253Z,976.4
2023-01-08T08:12:16.774Z,976.3
2023-01-08T08:14:18.413Z,976.3
2023-01-08T08:16:19.676Z,976.3
2023-01-08T08:18:20.624Z,976.2
2023-01-08T08:20:21.581Z,976.2
2023-01-08T08:22:22.598Z,976.2
2023-01-08T08:24:24.305Z,976.3
2023-01-08T08:26:25.330Z,976.3
2023-01-08T08:28:27.197Z,976.5
2023-01-08T08:30:28.872Z,976.4
2023-01-08T08:32:29.940Z,976.3
2023-01-08T08:34:30.981Z,976.3
2023-01-08T08:36:32.578Z,976.3
2023-01-08T08:38:34.169Z,976.3
2023-01-08T08:40:35.923Z,976.3
2023-01-08T08:42:37.742Z,976.3
2023-01-08T08:44:39.949Z,976.2
2023-01-08T08:46:40.286Z,976.2
2023-01-08T08:48:41.422Z,976.2
2023-01-08T08:50:52.098Z,976.1
2023-01-08T08:52:44.679Z,976.2
2023-01-08T08:54:46.386Z,976.2
2023-01-08T08:56:47.657Z,976.1
2023-01-08T09:00:49.715Z,976.1
2023-01-08T09:02:51.087Z,976.1
2023-01-08T09:04:52.156Z,976.1
2023-01-08T09:06:53.108Z,976.2
2023-01-08T09:07:36.929Z,976.1
2023-01-08T09:11:40.079Z,976.1
2023-01-08T09:13:41.479Z,976.1
2023-01-08T09:15:43.208Z,976.1
2023-01-08T09:17:44.898Z,976
2023-01-08T09:19:46.225Z,976.1
2023-01-08T09:21:47.691Z,976.1
2023-01-08T09:23:49.002Z,976.1
2023-01-08T09:25:50.548Z,976
2023-01-08T09:27:51.705Z,976.1
2023-01-08T09:29:53.595Z,976
2023-01-08T09:31:54.959Z,976.2
2023-01-08T09:33:56.872Z,976.2
2023-01-08T09:35:57.996Z,976.2
2023-01-08T09:37:59.191Z,976.1
2023-01-08T09:40:02.870Z,976.2
2023-01-08T09:42:02.375Z,976.2
2023-01-08T09:44:03.361Z,976.1
2023-01-08T09:46:05.248Z,976.2
2023-01-08T09:48:06.918Z,976.1
2023-01-08T09:50:07.990Z,976.2
2023-01-08T09:54:11.280Z,976
2023-01-08T09:56:12.527Z,976.1
2023-01-08T09:58:13.635Z,976
2023-01-08T10:00:14.827Z,976
2023-01-08T10:02:16.900Z,976
2023-01-08T10:04:18.184Z,975.9
2023-01-08T10:06:19.521Z,975.9
2023-01-08T10:10:21.654Z,975.8
2023-01-08T10:12:23.426Z,975.8
2023-01-08T10:14:25.368Z,975.7
2023-01-08T10:16:26.363Z,975.7
2023-01-08T10:18:27.729Z,975.7
2023-01-08T10:20:29.521Z,975.7
2023-01-08T10:22:31.127Z,975.6
2023-01-08T10:24:32.740Z,975.7
2023-01-08T10:26:33.875Z,975.7
2023-01-08T10:28:35.559Z,975.7
2023-01-08T10:30:37.037Z,975.6
2023-01-08T10:32:38.394Z,975.7
2023-01-08T10:34:39.640Z,975.6
2023-01-08T10:36:40.773Z,975.6
2023-01-08T10:38:42.064Z,975.5
2023-01-08T10:40:43.605Z,975.6
2023-01-08T10:42:45.079Z,975.6
2023-01-08T10:44:46.497Z,975.6
2023-01-08T10:46:47.701Z,975.6
2023-01-08T10:48:49.403Z,975.7
2023-01-08T10:52:52.044Z,975.7
2023-01-08T10:54:53.078Z,975.7
2023-01-08T10:56:54.442Z,975.5
2023-01-08T10:58:55.740Z,975.5
2023-01-08T11:00:57.039Z,975.5
2023-01-08T11:02:58.911Z,975.5
2023-01-08T11:05:00.609Z,975.6
2023-01-08T11:07:01.849Z,975.5
2023-01-08T11:09:03.205Z,975.5
2023-01-08T11:11:04.709Z,975.5
2023-01-08T11:13:06.452Z,975.4
2023-01-08T11:15:08.368Z,975.3
2023-01-08T11:19:11.385Z,975.5
2023-01-08T11:21:13.198Z,975.5
2023-01-08T11:23:14.509Z,975.4
2023-01-08T11:25:15.637Z,975.3
2023-01-08T11:27:17.429Z,975.4
2023-01-08T11:29:19.173Z,975.3
2023-01-08T11:31:20.573Z,975.3
2023-01-08T11:33:22.195Z,975.3
2023-01-08T11:35:23.510Z,975.4
2023-01-08T11:37:24.976Z,975.3
2023-01-08T11:39:26.876Z,975.2
2023-01-08T11:41:28.658Z,975.3
2023-01-08T11:43:29.719Z,975.2
2023-01-08T11:45:31.649Z,975.2
2023-01-08T11:47:33.407Z,975.2
2023-01-08T11:49:34.481Z,975.1
2023-01-08T11:51:36.239Z,975.2
2023-01-08T11:53:37.723Z,975.1
2023-01-08T11:55:38.675Z,975
2023-01-08T11:57:39.596Z,975.1
2023-01-08T12:01:42.861Z,974.9
2023-01-08T12:03:43.929Z,974.8
2023-01-08T12:05:45.025Z,974.9
2023-01-08T12:07:46.156Z,974.8
2023-01-08T12:11:49.364Z,974.8
2023-01-08T12:13:50.889Z,974.7
2023-01-08T12:15:52.001Z,974.7
2023-01-08T12:17:53.769Z,974.5
2023-01-08T12:19:54.884Z,974.4
2023-01-08T12:21:56.488Z,974.4
2023-01-08T12:23:57.835Z,974.4
2023-01-08T12:25:59.213Z,974.4
2023-01-08T12:28:00.858Z,974.3
2023-01-08T12:30:02.501Z,974.4
2023-01-08T12:32:06.548Z,974.5
2023-01-08T12:34:05.321Z,974.5
2023-01-08T12:36:06.656Z,974.4
2023-01-08T12:38:17.355Z,974.4
2023-01-08T12:40:10.141Z,974.3
2023-01-08T12:42:11.659Z,974.4
2023-01-08T12:44:13.056Z,974.4
2023-01-08T12:46:14.083Z,974.3
2023-01-08T12:48:15.505Z,974.4
2023-01-08T12:50:16.705Z,974.3
2023-01-08T12:52:26.058Z,974.2
2023-01-08T12:54:19.305Z,974.3
2023-01-08T12:56:20.737Z,974.3
2023-01-08T13:00:23.422Z,974.1
2023-01-08T13:02:24.627Z,974.1
2023-01-08T13:04:25.513Z,974.1
2023-01-08T13:06:27.123Z,974.1
2023-01-08T13:08:28.536Z,974.2
2023-01-08T13:10:31.292Z,974.1
2023-01-08T13:12:32.498Z,974.1
2023-01-08T13:14:33.418Z,974.1
2023-01-08T13:16:35.199Z,974
2023-01-08T13:18:37.035Z,974
2023-01-08T13:20:38.142Z,973.9
2023-01-08T13:22:39.420Z,974.1
2023-01-08T13:24:40.963Z,974.3
2023-01-08T13:26:42.277Z,974.2
2023-01-08T13:28:43.551Z,974.2
2023-01-08T13:30:44.570Z,974.2
2023-01-08T13:32:46.433Z,974.1
2023-01-08T13:34:47.677Z,974.1
2023-01-08T13:36:48.920Z,974.2
2023-01-08T13:38:49.907Z,974
2023-01-08T13:40:53.186Z,974
2023-01-08T13:42:53.536Z,973.9
2023-01-08T13:44:55.321Z,973.8
2023-01-08T13:46:57.025Z,973.7
2023-01-08T13:48:58.330Z,973.7
2023-01-08T13:50:59.987Z,973.7
2023-01-08T13:53:00.978Z,973.7
2023-01-08T13:55:02.584Z,973.6
2023-01-08T13:59:05.038Z,973.6
2023-01-08T14:01:06.007Z,973.6
2023-01-08T14:03:07.759Z,973.5
2023-01-08T14:05:09.152Z,973.5
2023-01-08T14:07:10.639Z,973.5
2023-01-08T14:09:12.580Z,973.5
2023-01-08T14:11:13.760Z,973.5
2023-01-08T14:13:14.707Z,973.5
2023-01-08T14:15:16.140Z,973.6
2023-01-08T14:17:17.709Z,973.5
2023-01-08T14:19:18.709Z,973.7
2023-01-08T14:21:19.982Z,973.5
2023-01-08T14:25:22.852Z,973.4
2023-01-08T14:27:24.187Z,973.4
2023-01-08T14:29:25.843Z,973.4
2023-01-08T14:31:26.901Z,973.4
2023-01-08T14:35:29.322Z,973.5
2023-01-08T14:37:31.191Z,973.6
2023-01-08T14:39:32.177Z,973.6
2023-01-08T14:41:33.282Z,973.5
2023-01-08T14:43:35.094Z,973.5
2023-01-08T14:45:36.905Z,973.5
2023-01-08T14:47:38.038Z,973.5
2023-01-08T14:49:38.956Z,973.5
2023-01-08T14:51:40.469Z,973.4
2023-01-08T14:53:41.626Z,973.3
2023-01-08T14:55:43.315Z,973.3
2023-01-08T14:57:44.488Z,973.2
2023-01-08T14:59:46.426Z,973.1
2023-01-08T15:01:48.267Z,973.2
2023-01-08T15:03:49.131Z,973.1
2023-01-08T15:05:50.981Z,973.2
2023-01-08T15:07:52.423Z,973.2
2023-01-08T15:09:53.500Z,973.1
2023-01-08T15:11:54.948Z,973.1
2023-01-08T15:13:56.477Z,973.1
2023-01-08T15:15:58.195Z,973.1
2023-01-08T15:17:59.456Z,973.1
2023-01-08T15:20:00.435Z,973.2
2023-01-08T15:24:03.357Z,973.1
2023-01-08T15:26:04.334Z,973.1
2023-01-08T15:28:05.375Z,973.1
2023-01-08T15:30:06.579Z,973.1
2023-01-08T15:32:07.586Z,973.1
2023-01-08T15:34:09.105Z,972.9
2023-01-08T15:36:10.197Z,972.9
2023-01-08T15:40:13.064Z,972.9
2023-01-08T15:42:14.778Z,973
2023-01-08T15:44:16.593Z,972.9
2023-01-08T15:46:17.723Z,972.9
2023-01-08T15:48:18.891Z,972.9
2023-01-08T15:50:20.467Z,972.8
2023-01-08T15:52:21.792Z,972.8
2023-01-08T15:53:05.563Z,972.8
2023-01-08T15:55:07.208Z,972.8
2023-01-08T15:57:08.189Z,972.8
2023-01-08T15:59:09.705Z,972.8
2023-01-08T16:01:11.248Z,972.7
2023-01-08T16:03:12.502Z,972.7
2023-01-08T16:05:13.942Z,972.7
2023-01-08T16:07:15.636Z,972.6
2023-01-08T16:09:17.036Z,972.6
2023-01-08T16:11:18.781Z,972.6
2023-01-08T16:13:20.300Z,972.5
2023-01-08T16:17:22.862Z,972.5
2023-01-08T16:19:25.052Z,972.5
2023-01-08T16:21:25.101Z,972.4
2023-01-08T16:23:26.228Z,972.5
2023-01-08T16:25:27.402Z,972.4
2023-01-08T16:27:28.876Z,972.5
2023-01-08T16:29:30.031Z,972.5
2023-01-08T16:31:31.117Z,972.5
2023-01-08T16:33:32.821Z,972.4
2023-01-08T16:35:34.250Z,972.4
2023-01-08T16:37:35.374Z,972.5
2023-01-08T16:39:36.514Z,972.4
2023-01-08T16:43:39.708Z,972.4
2023-01-08T16:45:41.306Z,972.3
2023-01-08T16:49:44.276Z,972.3
2023-01-08T16:51:46.121Z,972.4
2023-01-08T16:53:47.963Z,972.3
2023-01-08T16:55:48.960Z,972.3
2023-01-08T16:57:50.456Z,972.3
2023-01-08T16:59:51.739Z,972.3
2023-01-08T17:01:52.806Z,972.3
2023-01-08T17:03:54.593Z,972.1
2023-01-08T17:05:55.910Z,972.2
2023-01-08T17:07:56.855Z,972.2
2023-01-08T17:09:58.784Z,972.2
2023-01-08T17:11:59.915Z,972.1
2023-01-08T17:14:01.783Z,972
2023-01-08T17:16:03.100Z,972
2023-01-08T17:18:04.649Z,971.9
2023-01-08T17:20:06.218Z,971.9
2023-01-08T17:22:07.444Z,971.9
2023-01-08T17:24:08.764Z,971.9
2023-01-08T17:26:09.881Z,971.8
2023-01-08T17:28:11.527Z,971.7
2023-01-08T17:30:12.797Z,971.7
2023-01-08T17:32:14.291Z,971.6
2023-01-08T17:34:15.652Z,971.6
2023-01-08T17:36:16.767Z,971.6
2023-01-08T17:38:18.368Z,971.6
2023-01-08T17:40:19.583Z,971.5
2023-01-08T17:42:20.675Z,971.6
2023-01-08T17:44:22.153Z,971.5
2023-01-08T17:46:23.847Z,971.5
2023-01-08T17:48:25.117Z,971.5
2023-01-08T17:50:26.612Z,971.6
2023-01-08T17:52:27.723Z,971.3
2023-01-08T17:54:29.604Z,971.4
2023-01-08T17:56:30.988Z,971.4
2023-01-08T17:58:32.737Z,971.4
2023-01-08T18:00:34.208Z,971.5
2023-01-08T18:02:35.454Z,971.4
2023-01-08T18:04:37.171Z,971.4
2023-01-08T18:08:40.685Z,971.4
2023-01-08T18:10:42.121Z,971.4
2023-01-08T18:14:44.465Z,971.2
2023-01-08T18:16:45.908Z,971.2
2023-01-08T18:18:47.126Z,971.3
2023-01-08T18:20:48.128Z,971.2
2023-01-08T18:22:49.954Z,971.3
2023-01-08T18:24:51.233Z,971.3
2023-01-08T18:26:52.190Z,971.3
2023-01-08T18:28:53.760Z,971.2
2023-01-08T18:30:55.288Z,971.3
2023-01-08T18:32:56.589Z,971.2
2023-01-08T18:34:57.837Z,971.1
2023-01-08T18:36:59.237Z,971.1
2023-01-08T18:39:00.274Z,971.1
2023-01-08T18:41:01.541Z,971
2023-01-08T18:43:02.559Z,971.1
2023-01-08T18:45:04.237Z,971
2023-01-08T18:47:05.318Z,971
2023-01-08T18:49:06.618Z,970.9
2023-01-08T18:51:08.403Z,971
2023-01-08T18:53:10.146Z,971
2023-01-08T18:55:11.403Z,971
2023-01-08T18:57:13.118Z,971
2023-01-08T18:59:14.413Z,971
2023-01-08T19:01:15.694Z,971
2023-01-08T19:03:17.342Z,971
2023-01-08T19:05:18.882Z,970.9
2023-01-08T19:07:19.931Z,970.8
2023-01-08T19:09:21.758Z,970.7
2023-01-08T19:13:24.909Z,970.8
2023-01-08T19:15:26.848Z,970.7
2023-01-08T19:17:28.672Z,970.7
2023-01-08T19:19:30.239Z,970.8
2023-01-08T19:21:31.193Z,970.8
2023-01-08T19:23:32.186Z,970.6
2023-01-08T19:25:33.797Z,970.6
2023-01-08T19:27:35.104Z,970.7
2023-01-08T19:29:36.440Z,970.6
2023-01-08T19:31:38.165Z,970.6
2023-01-08T19:33:39.313Z,970.6
2023-01-08T19:35:40.567Z,970.5
2023-01-08T19:37:41.847Z,970.5
2023-01-08T19:39:43.258Z,970.3
2023-01-08T19:41:44.746Z,970.3
2023-01-08T19:43:46.173Z,970.2
2023-01-08T19:45:47.823Z,970.1
2023-01-08T19:47:49.399Z,970.1
2023-01-08T19:49:50.347Z,970.1
2023-01-08T19:51:51.687Z,970.1
2023-01-08T19:55:54.503Z,970.1
2023-01-08T19:57:55.488Z,970.1
2023-01-08T19:59:56.479Z,970.2
2023-01-08T20:01:58.041Z,970.2
2023-01-08T20:03:59.148Z,970.1
2023-01-08T20:06:00.930Z,970.1
2023-01-08T20:08:02.540Z,969.9
2023-01-08T20:10:04.342Z,969.9
2023-01-08T20:12:05.652Z,969.9
2023-01-08T20:14:07.284Z,969.8
2023-01-08T20:16:08.306Z,969.6
2023-01-08T20:18:10.173Z,969.7
2023-01-08T20:22:13.630Z,969.6
2023-01-08T20:24:14.980Z,969.6
2023-01-08T20:26:16.808Z,969.6
2023-01-08T20:28:17.783Z,969.5
2023-01-08T20:30:18.885Z,969.6
2023-01-08T20:32:23.282Z,969.6
2023-01-08T20:34:22.064Z,969.6
2023-01-08T20:36:23.943Z,969.6
2023-01-08T20:38:25.129Z,969.6
2023-01-08T20:40:26.753Z,969.5
2023-01-08T20:42:33.869Z,969.7
2023-01-08T20:44:29.603Z,969.6
2023-01-08T20:46:30.662Z,969.5
2023-01-08T20:48:34.228Z,969.5
2023-01-08T20:50:33.564Z,969.5
2023-01-08T20:52:34.807Z,969.5
2023-01-08T20:54:35.943Z,969.4
2023-01-08T20:56:37.667Z,969.3
2023-01-08T20:58:39.556Z,969.3
2023-01-08T21:00:40.550Z,969.3
2023-01-08T21:04:43.698Z,969.3
2023-01-08T21:06:45.558Z,969.3
2023-01-08T21:08:47.189Z,969.2
2023-01-08T21:10:48.848Z,969.2
2023-01-08T21:14:52.077Z,969.2
2023-01-08T21:16:53.393Z,969.2
2023-01-08T21:18:55.149Z,969.2
2023-01-08T21:20:56.960Z,969
2023-01-08T21:22:58.210Z,969.1
2023-01-08T21:24:59.409Z,969.2
2023-01-08T21:27:00.892Z,969.2
2023-01-08T21:29:01.975Z,969.2
2023-01-08T21:31:03.658Z,969.1
2023-01-08T21:33:04.762Z,969.1
2023-01-08T21:35:06.509Z,969
2023-01-08T21:37:08.210Z,969
2023-01-08T21:39:09.862Z,968.9
2023-01-08T21:41:11.586Z,968.7
2023-01-08T21:43:13.476Z,968.8
2023-01-08T21:47:15.927Z,968.8
2023-01-08T21:49:17.684Z,968.7
2023-01-08T21:51:19.251Z,968.7
2023-01-08T21:53:20.743Z,968.6
2023-01-08T21:57:23.189Z,968.5
2023-01-08T21:59:25.111Z,968.6
2023-01-08T22:01:27.067Z,968.6
2023-01-08T22:03:27.886Z,968.5
2023-01-08T22:05:29.151Z,968.4
2023-01-08T22:07:30.763Z,968.5
2023-01-08T22:09:32.619Z,968.4
2023-01-08T22:11:34.640Z,968.4
2023-01-08T22:13:35.913Z,968.5
2023-01-08T22:15:37.452Z,968.4
2023-01-08T22:17:39.083Z,968.4
2023-01-08T22:19:40.677Z,968.3
2023-01-08T22:21:42.479Z,968.2
2023-01-08T22:23:43.427Z,968.2
2023-01-08T22:25:45.283Z,968.2
2023-01-08T22:27:46.998Z,968.1
2023-01-08T22:29:48.072Z,968.2
2023-01-08T22:31:50.048Z,968.1
2023-01-08T22:33:51.544Z,968.1
2023-01-08T22:35:52.711Z,968.2
2023-01-08T22:40:39.298Z,968.1
2023-01-08T22:42:41.201Z,968
2023-01-08T22:44:42.322Z,968
2023-01-08T22:46:43.941Z,967.9
2023-01-08T22:48:45.289Z,967.9
2023-01-08T22:50:47.128Z,967.9
2023-01-08T22:52:48.517Z,967.8
2023-01-08T22:54:50.274Z,967.9
2023-01-08T22:56:51.422Z,967.8
2023-01-08T22:58:52.780Z,967.8
2023-01-08T23:00:54.408Z,967.9
2023-01-08T23:02:55.629Z,967.9
2023-01-08T23:04:57.360Z,967.9
2023-01-08T23:06:58.889Z,967.9
2023-01-08T23:09:00.171Z,967.9
2023-01-08T23:11:01.578Z,967.9
2023-01-08T23:13:03.082Z,967.8
2023-01-08T23:15:04.499Z,967.9
2023-01-08T23:17:05.888Z,967.8
2023-01-08T23:19:07.804Z,967.8
2023-01-08T23:21:09.383Z,967.7
2023-01-08T23:23:11.261Z,967.7
2023-01-08T23:25:12.996Z,967.8
2023-01-08T23:27:14.076Z,967.7
2023-01-08T23:29:15.940Z,967.7
2023-01-08T23:31:17.591Z,967.7
2023-01-08T23:33:18.864Z,967.7
2023-01-08T23:35:19.871Z,967.7
2023-01-08T23:39:23.131Z,967.7
2023-01-08T23:41:24.298Z,967.6
2023-01-08T23:43:25.714Z,967.6
2023-01-08T23:45:26.847Z,967.5
2023-01-08T23:47:28.737Z,967.5
2023-01-08T23:49:30.064Z,967.6
2023-01-08T23:51:31.201Z,967.5
2023-01-08T23:53:32.928Z,967.5
2023-01-08T23:55:34.832Z,967.4
2023-01-08T23:57:35.785Z,967.5
2023-01-08T23:59:36.897Z,967.4
